sensor_id;sensor_type;location;lat;lon;timestamp;P1;durP1;ratioP1;P2;durP2;ratioP2
55025;SDS011;40925;45.666;18.994;2023-05-29T00:01:20;8.85;;;5.10;;
55025;SDS011;40925;45.666;18.994;2023-05-29T00:03:49;8.40;;;5.03;;
55025;SDS011;40925;45.666;18.994;2023-05-29T00:06:15;8.23;;;5.18;;
55025;SDS011;40925;45.666;18.994;2023-05-29T00:08:40;12.35;;;5.70;;
55025;SDS011;40925;45.666;18.994;2023-05-29T00:11:06;10.68;;;6.15;;
55025;SDS011;40925;45.666;18.994;2023-05-29T00:13:32;10.95;;;6.15;;
55025;SDS011;40925;45.666;18.994;2023-05-29T00:15:57;10.65;;;6.50;;
55025;SDS011;40925;45.666;18.994;2023-05-29T00:18:25;8.57;;;5.88;;
55025;SDS011;40925;45.666;18.994;2023-05-29T00:20:52;10.50;;;6.00;;
55025;SDS011;40925;45.666;18.994;2023-05-29T00:23:18;10.25;;;5.60;;
55025;SDS011;40925;45.666;18.994;2023-05-29T00:25:44;11.07;;;6.40;;
55025;SDS011;40925;45.666;18.994;2023-05-29T00:28:10;10.80;;;5.93;;
55025;SDS011;40925;45.666;18.994;2023-05-29T00:30:37;11.43;;;6.10;;
55025;SDS011;40925;45.666;18.994;2023-05-29T00:33:03;9.90;;;5.60;;
55025;SDS011;40925;45.666;18.994;2023-05-29T00:35:29;12.27;;;6.55;;
55025;SDS011;40925;45.666;18.994;2023-05-29T00:37:55;13.90;;;6.10;;
55025;SDS011;40925;45.666;18.994;2023-05-29T00:40:22;13.48;;;6.25;;
55025;SDS011;40925;45.666;18.994;2023-05-29T00:42:48;11.73;;;6.05;;
55025;SDS011;40925;45.666;18.994;2023-05-29T00:45:13;13.27;;;6.40;;
55025;SDS011;40925;45.666;18.994;2023-05-29T00:47:40;10.15;;;6.43;;
55025;SDS011;40925;45.666;18.994;2023-05-29T00:50:06;9.80;;;6.97;;
55025;SDS011;40925;45.666;18.994;2023-05-29T00:52:35;9.57;;;6.43;;
55025;SDS011;40925;45.666;18.994;2023-05-29T00:55:02;11.10;;;6.10;;
55025;SDS011;40925;45.666;18.994;2023-05-29T00:57:29;11.13;;;6.38;;
55025;SDS011;40925;45.666;18.994;2023-05-29T00:59:59;11.35;;;6.00;;
55025;SDS011;40925;45.666;18.994;2023-05-29T01:02:27;11.43;;;6.40;;
55025;SDS011;40925;45.666;18.994;2023-05-29T01:04:54;12.90;;;7.13;;
55025;SDS011;40925;45.666;18.994;2023-05-29T01:07:22;12.10;;;6.93;;
55025;SDS011;40925;45.666;18.994;2023-05-29T01:09:48;8.80;;;6.28;;
55025;SDS011;40925;45.666;18.994;2023-05-29T01:17:51;10.60;;;6.43;;
55025;SDS011;40925;45.666;18.994;2023-05-29T01:28:32;10.60;;;6.05;;
55025;SDS011;40925;45.666;18.994;2023-05-29T01:31:04;10.55;;;5.97;;
55025;SDS011;40925;45.666;18.994;2023-05-29T01:33:32;11.27;;;6.10;;
55025;SDS011;40925;45.666;18.994;2023-05-29T01:35:58;10.73;;;6.22;;
55025;SDS011;40925;45.666;18.994;2023-05-29T01:38:24;9.25;;;6.22;;
55025;SDS011;40925;45.666;18.994;2023-05-29T01:40:49;9.32;;;6.40;;
55025;SDS011;40925;45.666;18.994;2023-05-29T01:43:16;12.80;;;6.40;;
55025;SDS011;40925;45.666;18.994;2023-05-29T01:45:42;10.18;;;6.82;;
55025;SDS011;40925;45.666;18.994;2023-05-29T01:48:08;11.52;;;7.00;;
55025;SDS011;40925;45.666;18.994;2023-05-29T01:50:34;13.32;;;7.45;;
55025;SDS011;40925;45.666;18.994;2023-05-29T01:53:01;11.95;;;8.02;;
55025;SDS011;40925;45.666;18.994;2023-05-29T01:55:27;14.48;;;7.80;;
55025;SDS011;40925;45.666;18.994;2023-05-29T01:57:53;12.82;;;7.55;;
55025;SDS011;40925;45.666;18.994;2023-05-29T02:00:20;13.77;;;7.93;;
55025;SDS011;40925;45.666;18.994;2023-05-29T02:02:45;12.63;;;7.72;;
55025;SDS011;40925;45.666;18.994;2023-05-29T02:05:11;14.38;;;7.60;;
55025;SDS011;40925;45.666;18.994;2023-05-29T02:07:37;12.68;;;7.40;;
55025;SDS011;40925;45.666;18.994;2023-05-29T02:10:06;14.20;;;7.07;;
55025;SDS011;40925;45.666;18.994;2023-05-29T02:12:32;14.55;;;8.52;;
55025;SDS011;40925;45.666;18.994;2023-05-29T02:14:57;13.73;;;8.13;;
55025;SDS011;40925;45.666;18.994;2023-05-29T02:17:23;18.10;;;8.27;;
55025;SDS011;40925;45.666;18.994;2023-05-29T02:19:50;21.58;;;8.45;;
55025;SDS011;40925;45.666;18.994;2023-05-29T02:22:16;14.38;;;7.60;;
55025;SDS011;40925;45.666;18.994;2023-05-29T02:24:42;18.05;;;7.18;;
55025;SDS011;40925;45.666;18.994;2023-05-29T02:27:08;20.30;;;7.88;;
55025;SDS011;40925;45.666;18.994;2023-05-29T02:29:35;14.10;;;8.10;;
55025;SDS011;40925;45.666;18.994;2023-05-29T02:32:01;15.52;;;7.90;;
55025;SDS011;40925;45.666;18.994;2023-05-29T02:34:27;15.10;;;8.02;;
55025;SDS011;40925;45.666;18.994;2023-05-29T02:36:54;16.73;;;8.75;;
55025;SDS011;40925;45.666;18.994;2023-05-29T02:39:20;18.42;;;8.75;;
55025;SDS011;40925;45.666;18.994;2023-05-29T02:41:46;15.05;;;8.77;;
55025;SDS011;40925;45.666;18.994;2023-05-29T02:44:12;12.98;;;7.85;;
55025;SDS011;40925;45.666;18.994;2023-05-29T02:46:38;14.30;;;8.57;;
55025;SDS011;40925;45.666;18.994;2023-05-29T02:49:04;18.27;;;8.40;;
55025;SDS011;40925;45.666;18.994;2023-05-29T02:51:30;12.50;;;8.05;;
55025;SDS011;40925;45.666;18.994;2023-05-29T02:53:57;11.93;;;7.95;;
55025;SDS011;40925;45.666;18.994;2023-05-29T02:56:23;13.40;;;8.13;;
55025;SDS011;40925;45.666;18.994;2023-05-29T02:58:52;12.65;;;8.57;;
55025;SDS011;40925;45.666;18.994;2023-05-29T03:01:18;18.25;;;9.05;;
55025;SDS011;40925;45.666;18.994;2023-05-29T03:03:43;16.10;;;8.52;;
55025;SDS011;40925;45.666;18.994;2023-05-29T03:06:09;17.48;;;8.80;;
55025;SDS011;40925;45.666;18.994;2023-05-29T03:08:37;15.90;;;8.73;;
55025;SDS011;40925;45.666;18.994;2023-05-29T03:11:09;17.63;;;8.88;;
55025;SDS011;40925;45.666;18.994;2023-05-29T03:13:37;17.40;;;9.55;;
55025;SDS011;40925;45.666;18.994;2023-05-29T03:16:03;18.75;;;8.95;;
55025;SDS011;40925;45.666;18.994;2023-05-29T03:18:29;16.92;;;8.73;;
55025;SDS011;40925;45.666;18.994;2023-05-29T03:20:55;16.95;;;8.25;;
55025;SDS011;40925;45.666;18.994;2023-05-29T03:23:21;15.32;;;8.85;;
55025;SDS011;40925;45.666;18.994;2023-05-29T03:25:46;20.42;;;8.15;;
55025;SDS011;40925;45.666;18.994;2023-05-29T03:28:12;16.40;;;8.77;;
55025;SDS011;40925;45.666;18.994;2023-05-29T03:30:38;15.85;;;8.63;;
55025;SDS011;40925;45.666;18.994;2023-05-29T03:33:03;15.20;;;8.05;;
55025;SDS011;40925;45.666;18.994;2023-05-29T03:35:29;25.95;;;9.50;;
55025;SDS011;40925;45.666;18.994;2023-05-29T03:37:55;22.42;;;9.13;;
55025;SDS011;40925;45.666;18.994;2023-05-29T03:40:21;17.88;;;8.73;;
55025;SDS011;40925;45.666;18.994;2023-05-29T03:42:46;19.85;;;9.40;;
55025;SDS011;40925;45.666;18.994;2023-05-29T03:45:12;19.58;;;9.52;;
55025;SDS011;40925;45.666;18.994;2023-05-29T03:47:38;17.67;;;8.95;;
55025;SDS011;40925;45.666;18.994;2023-05-29T03:50:04;16.23;;;9.35;;
55025;SDS011;40925;45.666;18.994;2023-05-29T03:52:30;17.55;;;8.88;;
55025;SDS011;40925;45.666;18.994;2023-05-29T03:54:55;20.55;;;9.40;;
55025;SDS011;40925;45.666;18.994;2023-05-29T03:57:21;20.63;;;8.63;;
55025;SDS011;40925;45.666;18.994;2023-05-29T03:59:47;18.40;;;9.02;;
55025;SDS011;40925;45.666;18.994;2023-05-29T04:02:12;15.70;;;8.73;;
55025;SDS011;40925;45.666;18.994;2023-05-29T04:04:38;13.75;;;8.82;;
55025;SDS011;40925;45.666;18.994;2023-05-29T04:07:07;13.68;;;9.10;;
55025;SDS011;40925;45.666;18.994;2023-05-29T04:09:33;17.40;;;9.55;;
55025;SDS011;40925;45.666;18.994;2023-05-29T04:11:59;19.48;;;10.02;;
55025;SDS011;40925;45.666;18.994;2023-05-29T04:14:27;17.73;;;9.77;;
55025;SDS011;40925;45.666;18.994;2023-05-29T04:16:53;19.10;;;10.10;;
55025;SDS011;40925;45.666;18.994;2023-05-29T04:19:19;17.00;;;9.43;;
55025;SDS011;40925;45.666;18.994;2023-05-29T04:21:46;24.23;;;10.15;;
55025;SDS011;40925;45.666;18.994;2023-05-29T04:24:13;18.20;;;10.27;;
55025;SDS011;40925;45.666;18.994;2023-05-29T04:26:39;18.70;;;10.25;;
55025;SDS011;40925;45.666;18.994;2023-05-29T04:29:06;18.48;;;10.35;;
55025;SDS011;40925;45.666;18.994;2023-05-29T04:31:33;18.98;;;9.95;;
55025;SDS011;40925;45.666;18.994;2023-05-29T04:34:01;19.52;;;10.00;;
55025;SDS011;40925;45.666;18.994;2023-05-29T04:36:29;23.90;;;10.13;;
55025;SDS011;40925;45.666;18.994;2023-05-29T04:38:58;14.95;;;9.55;;
55025;SDS011;40925;45.666;18.994;2023-05-29T04:41:27;17.88;;;9.32;;
55025;SDS011;40925;45.666;18.994;2023-05-29T04:43:56;16.08;;;9.05;;
55025;SDS011;40925;45.666;18.994;2023-05-29T04:46:22;16.00;;;8.82;;
55025;SDS011;40925;45.666;18.994;2023-05-29T04:48:49;16.70;;;9.10;;
55025;SDS011;40925;45.666;18.994;2023-05-29T04:51:18;21.42;;;10.30;;
55025;SDS011;40925;45.666;18.994;2023-05-29T04:53:47;16.08;;;9.60;;
55025;SDS011;40925;45.666;18.994;2023-05-29T04:56:14;17.35;;;9.57;;
55025;SDS011;40925;45.666;18.994;2023-05-29T04:58:41;18.73;;;9.90;;
55025;SDS011;40925;45.666;18.994;2023-05-29T05:01:07;14.88;;;9.77;;
55025;SDS011;40925;45.666;18.994;2023-05-29T05:03:34;17.00;;;9.80;;
55025;SDS011;40925;45.666;18.994;2023-05-29T05:06:01;15.10;;;9.57;;
55025;SDS011;40925;45.666;18.994;2023-05-29T05:08:31;14.65;;;9.18;;
55025;SDS011;40925;45.666;18.994;2023-05-29T05:10:58;17.73;;;9.38;;
55025;SDS011;40925;45.666;18.994;2023-05-29T05:13:24;16.20;;;8.75;;
55025;SDS011;40925;45.666;18.994;2023-05-29T05:15:50;15.25;;;8.63;;
55025;SDS011;40925;45.666;18.994;2023-05-29T05:18:16;13.25;;;8.55;;
55025;SDS011;40925;45.666;18.994;2023-05-29T05:20:42;13.77;;;8.50;;
55025;SDS011;40925;45.666;18.994;2023-05-29T05:23:08;13.32;;;8.45;;
55025;SDS011;40925;45.666;18.994;2023-05-29T05:25:35;14.30;;;8.68;;
55025;SDS011;40925;45.666;18.994;2023-05-29T05:28:02;13.80;;;8.10;;
55025;SDS011;40925;45.666;18.994;2023-05-29T05:30:28;13.85;;;8.15;;
55025;SDS011;40925;45.666;18.994;2023-05-29T05:32:54;15.70;;;8.13;;
55025;SDS011;40925;45.666;18.994;2023-05-29T05:38:06;11.88;;;7.78;;
55025;SDS011;40925;45.666;18.994;2023-05-29T05:40:32;13.02;;;7.78;;
55025;SDS011;40925;45.666;18.994;2023-05-29T05:42:58;12.75;;;7.95;;
55025;SDS011;40925;45.666;18.994;2023-05-29T05:45:24;12.82;;;7.55;;
55025;SDS011;40925;45.666;18.994;2023-05-29T05:47:49;12.15;;;7.57;;
55025;SDS011;40925;45.666;18.994;2023-05-29T05:50:15;12.45;;;7.47;;
55025;SDS011;40925;45.666;18.994;2023-05-29T05:52:41;11.25;;;7.20;;
55025;SDS011;40925;45.666;18.994;2023-05-29T05:55:07;13.48;;;7.38;;
55025;SDS011;40925;45.666;18.994;2023-05-29T05:57:33;11.20;;;6.63;;
55025;SDS011;40925;45.666;18.994;2023-05-29T06:00:01;10.93;;;6.90;;
55025;SDS011;40925;45.666;18.994;2023-05-29T06:02:33;10.85;;;7.03;;
55025;SDS011;40925;45.666;18.994;2023-05-29T06:04:59;10.13;;;6.53;;
55025;SDS011;40925;45.666;18.994;2023-05-29T06:07:25;10.80;;;6.65;;
55025;SDS011;40925;45.666;18.994;2023-05-29T06:09:51;11.35;;;6.78;;
55025;SDS011;40925;45.666;18.994;2023-05-29T06:12:16;11.10;;;6.55;;
55025;SDS011;40925;45.666;18.994;2023-05-29T06:14:42;10.20;;;6.10;;
55025;SDS011;40925;45.666;18.994;2023-05-29T06:17:07;7.75;;;5.97;;
55025;SDS011;40925;45.666;18.994;2023-05-29T06:19:33;10.68;;;6.28;;
55025;SDS011;40925;45.666;18.994;2023-05-29T06:21:59;11.55;;;6.43;;
55025;SDS011;40925;45.666;18.994;2023-05-29T06:24:25;14.20;;;5.90;;
55025;SDS011;40925;45.666;18.994;2023-05-29T06:26:51;8.93;;;6.03;;
55025;SDS011;40925;45.666;18.994;2023-05-29T06:29:17;9.00;;;5.63;;
55025;SDS011;40925;45.666;18.994;2023-05-29T06:31:43;7.25;;;5.28;;
55025;SDS011;40925;45.666;18.994;2023-05-29T06:34:08;8.27;;;5.40;;
55025;SDS011;40925;45.666;18.994;2023-05-29T06:36:34;10.85;;;5.07;;
55025;SDS011;40925;45.666;18.994;2023-05-29T06:39:00;7.80;;;4.90;;
55025;SDS011;40925;45.666;18.994;2023-05-29T06:41:25;6.07;;;4.60;;
55025;SDS011;40925;45.666;18.994;2023-05-29T06:43:51;8.32;;;4.93;;
55025;SDS011;40925;45.666;18.994;2023-05-29T06:46:17;6.65;;;4.85;;
55025;SDS011;40925;45.666;18.994;2023-05-29T06:48:42;7.32;;;4.88;;
55025;SDS011;40925;45.666;18.994;2023-05-29T06:51:08;7.75;;;4.97;;
55025;SDS011;40925;45.666;18.994;2023-05-29T06:53:36;8.93;;;4.85;;
55025;SDS011;40925;45.666;18.994;2023-05-29T06:56:05;8.40;;;4.65;;
55025;SDS011;40925;45.666;18.994;2023-05-29T06:58:31;9.07;;;4.78;;
55025;SDS011;40925;45.666;18.994;2023-05-29T07:00:57;7.07;;;4.30;;
55025;SDS011;40925;45.666;18.994;2023-05-29T07:03:24;7.00;;;4.32;;
55025;SDS011;40925;45.666;18.994;2023-05-29T07:05:51;6.30;;;4.50;;
55025;SDS011;40925;45.666;18.994;2023-05-29T07:08:17;5.55;;;4.13;;
55025;SDS011;40925;45.666;18.994;2023-05-29T07:10:43;6.40;;;4.35;;
55025;SDS011;40925;45.666;18.994;2023-05-29T07:13:09;6.45;;;3.95;;
55025;SDS011;40925;45.666;18.994;2023-05-29T07:15:36;5.60;;;4.18;;
55025;SDS011;40925;45.666;18.994;2023-05-29T07:18:04;6.28;;;3.92;;
55025;SDS011;40925;45.666;18.994;2023-05-29T07:20:30;6.18;;;4.10;;
55025;SDS011;40925;45.666;18.994;2023-05-29T07:22:55;5.82;;;4.30;;
55025;SDS011;40925;45.666;18.994;2023-05-29T07:25:21;7.80;;;4.28;;
55025;SDS011;40925;45.666;18.994;2023-05-29T07:27:47;6.13;;;4.40;;
55025;SDS011;40925;45.666;18.994;2023-05-29T07:30:12;8.32;;;3.80;;
55025;SDS011;40925;45.666;18.994;2023-05-29T07:32:38;4.75;;;3.80;;
55025;SDS011;40925;45.666;18.994;2023-05-29T07:35:05;5.65;;;3.80;;
55025;SDS011;40925;45.666;18.994;2023-05-29T07:37:31;6.57;;;4.03;;
55025;SDS011;40925;45.666;18.994;2023-05-29T07:39:57;7.05;;;3.70;;
55025;SDS011;40925;45.666;18.994;2023-05-29T07:42:23;5.32;;;3.75;;
55025;SDS011;40925;45.666;18.994;2023-05-29T07:44:48;5.78;;;3.58;;
55025;SDS011;40925;45.666;18.994;2023-05-29T07:47:14;5.30;;;3.10;;
55025;SDS011;40925;45.666;18.994;2023-05-29T07:49:40;5.85;;;3.10;;
55025;SDS011;40925;45.666;18.994;2023-05-29T07:52:07;6.20;;;3.17;;
55025;SDS011;40925;45.666;18.994;2023-05-29T07:54:33;3.95;;;3.08;;
55025;SDS011;40925;45.666;18.994;2023-05-29T07:56:59;4.97;;;3.10;;
55025;SDS011;40925;45.666;18.994;2023-05-29T07:59:25;5.53;;;3.10;;
55025;SDS011;40925;45.666;18.994;2023-05-29T08:01:51;4.70;;;2.70;;
55025;SDS011;40925;45.666;18.994;2023-05-29T08:04:17;3.88;;;2.40;;
55025;SDS011;40925;45.666;18.994;2023-05-29T08:06:43;6.70;;;3.17;;
55025;SDS011;40925;45.666;18.994;2023-05-29T08:09:09;4.18;;;3.05;;
55025;SDS011;40925;45.666;18.994;2023-05-29T08:11:35;3.83;;;3.15;;
55025;SDS011;40925;45.666;18.994;2023-05-29T08:14:02;4.95;;;3.38;;
55025;SDS011;40925;45.666;18.994;2023-05-29T08:16:28;5.50;;;3.30;;
55025;SDS011;40925;45.666;18.994;2023-05-29T08:18:54;3.58;;;2.90;;
55025;SDS011;40925;45.666;18.994;2023-05-29T08:21:20;7.53;;;3.00;;
55025;SDS011;40925;45.666;18.994;2023-05-29T08:23:45;5.20;;;2.78;;
55025;SDS011;40925;45.666;18.994;2023-05-29T08:26:11;3.50;;;2.45;;
55025;SDS011;40925;45.666;18.994;2023-05-29T08:28:38;3.85;;;2.65;;
55025;SDS011;40925;45.666;18.994;2023-05-29T08:31:04;3.72;;;2.30;;
55025;SDS011;40925;45.666;18.994;2023-05-29T08:33:30;3.63;;;2.60;;
55025;SDS011;40925;45.666;18.994;2023-05-29T08:36:00;4.97;;;2.42;;
55025;SDS011;40925;45.666;18.994;2023-05-29T08:38:26;3.67;;;2.20;;
55025;SDS011;40925;45.666;18.994;2023-05-29T08:40:52;4.43;;;2.40;;
55025;SDS011;40925;45.666;18.994;2023-05-29T08:43:21;3.53;;;2.75;;
55025;SDS011;40925;45.666;18.994;2023-05-29T08:45:47;4.53;;;2.45;;
55025;SDS011;40925;45.666;18.994;2023-05-29T08:48:18;2.83;;;2.25;;
55025;SDS011;40925;45.666;18.994;2023-05-29T08:50:47;3.33;;;2.42;;
55025;SDS011;40925;45.666;18.994;2023-05-29T08:53:14;4.40;;;2.90;;
55025;SDS011;40925;45.666;18.994;2023-05-29T08:55:41;3.45;;;2.20;;
55025;SDS011;40925;45.666;18.994;2023-05-29T08:58:07;3.80;;;2.35;;
55025;SDS011;40925;45.666;18.994;2023-05-29T09:00:35;3.85;;;2.60;;
55025;SDS011;40925;45.666;18.994;2023-05-29T09:03:01;3.05;;;2.30;;
55025;SDS011;40925;45.666;18.994;2023-05-29T09:05:28;5.47;;;2.70;;
55025;SDS011;40925;45.666;18.994;2023-05-29T09:07:54;5.65;;;2.53;;
55025;SDS011;40925;45.666;18.994;2023-05-29T09:10:21;3.75;;;2.70;;
55025;SDS011;40925;45.666;18.994;2023-05-29T09:12:47;3.58;;;2.70;;
55025;SDS011;40925;45.666;18.994;2023-05-29T09:15:17;4.70;;;3.20;;
55025;SDS011;40925;45.666;18.994;2023-05-29T09:17:44;5.38;;;2.90;;
55025;SDS011;40925;45.666;18.994;2023-05-29T09:20:15;5.35;;;2.58;;
55025;SDS011;40925;45.666;18.994;2023-05-29T09:22:43;5.28;;;2.83;;
55025;SDS011;40925;45.666;18.994;2023-05-29T09:25:18;3.22;;;2.58;;
55025;SDS011;40925;45.666;18.994;2023-05-29T09:27:47;4.10;;;2.70;;
55025;SDS011;40925;45.666;18.994;2023-05-29T09:30:37;4.13;;;2.75;;
55025;SDS011;40925;45.666;18.994;2023-05-29T09:33:06;4.53;;;2.75;;
55025;SDS011;40925;45.666;18.994;2023-05-29T09:35:34;4.07;;;3.00;;
55025;SDS011;40925;45.666;18.994;2023-05-29T09:38:00;4.70;;;2.67;;
55025;SDS011;40925;45.666;18.994;2023-05-29T09:40:30;3.72;;;2.70;;
55025;SDS011;40925;45.666;18.994;2023-05-29T09:43:01;5.25;;;2.72;;
55025;SDS011;40925;45.666;18.994;2023-05-29T09:45:35;6.15;;;2.60;;
55025;SDS011;40925;45.666;18.994;2023-05-29T09:48:02;3.35;;;2.60;;
55025;SDS011;40925;45.666;18.994;2023-05-29T09:50:28;4.07;;;2.60;;
55025;SDS011;40925;45.666;18.994;2023-05-29T09:52:56;4.05;;;2.90;;
55025;SDS011;40925;45.666;18.994;2023-05-29T09:55:23;3.42;;;2.75;;
55025;SDS011;40925;45.666;18.994;2023-05-29T09:57:52;3.50;;;2.65;;
55025;SDS011;40925;45.666;18.994;2023-05-29T10:00:19;3.28;;;2.42;;
55025;SDS011;40925;45.666;18.994;2023-05-29T10:02:47;3.13;;;2.42;;
55025;SDS011;40925;45.666;18.994;2023-05-29T10:05:14;4.13;;;2.38;;
55025;SDS011;40925;45.666;18.994;2023-05-29T10:07:49;3.22;;;2.80;;
55025;SDS011;40925;45.666;18.994;2023-05-29T10:10:18;3.38;;;2.53;;
55025;SDS011;40925;45.666;18.994;2023-05-29T10:12:47;4.32;;;2.63;;
55025;SDS011;40925;45.666;18.994;2023-05-29T10:15:14;4.18;;;2.40;;
55025;SDS011;40925;45.666;18.994;2023-05-29T10:17:51;3.00;;;2.38;;
55025;SDS011;40925;45.666;18.994;2023-05-29T10:20:22;2.95;;;2.38;;
55025;SDS011;40925;45.666;18.994;2023-05-29T10:22:49;4.20;;;2.70;;
55025;SDS011;40925;45.666;18.994;2023-05-29T10:25:20;3.20;;;2.40;;
55025;SDS011;40925;45.666;18.994;2023-05-29T10:27:49;4.38;;;2.67;;
55025;SDS011;40925;45.666;18.994;2023-05-29T10:30:21;3.47;;;2.60;;
55025;SDS011;40925;45.666;18.994;2023-05-29T10:33:29;4.85;;;2.20;;
55025;SDS011;40925;45.666;18.994;2023-05-29T10:38:18;4.25;;;2.60;;
55025;SDS011;40925;45.666;18.994;2023-05-29T10:40:46;3.65;;;2.75;;
55025;SDS011;40925;45.666;18.994;2023-05-29T10:43:31;4.25;;;2.78;;
55025;SDS011;40925;45.666;18.994;2023-05-29T10:45:58;3.40;;;2.50;;
55025;SDS011;40925;45.666;18.994;2023-05-29T10:50:53;5.38;;;2.70;;
55025;SDS011;40925;45.666;18.994;2023-05-29T10:53:24;3.78;;;2.80;;
55025;SDS011;40925;45.666;18.994;2023-05-29T10:55:56;3.40;;;2.85;;
55025;SDS011;40925;45.666;18.994;2023-05-29T10:58:22;5.25;;;3.10;;
55025;SDS011;40925;45.666;18.994;2023-05-29T11:00:50;4.75;;;3.08;;
55025;SDS011;40925;45.666;18.994;2023-05-29T11:03:22;4.22;;;3.10;;
55025;SDS011;40925;45.666;18.994;2023-05-29T11:08:35;4.72;;;3.60;;
55025;SDS011;40925;45.666;18.994;2023-05-29T11:11:11;4.95;;;3.65;;
55025;SDS011;40925;45.666;18.994;2023-05-29T11:13:38;10.23;;;3.00;;
55025;SDS011;40925;45.666;18.994;2023-05-29T11:16:12;9.13;;;3.78;;
55025;SDS011;40925;45.666;18.994;2023-05-29T11:18:45;4.32;;;3.70;;
55025;SDS011;40925;45.666;18.994;2023-05-29T11:21:21;6.18;;;3.40;;
55025;SDS011;40925;45.666;18.994;2023-05-29T11:23:51;4.90;;;3.25;;
55025;SDS011;40925;45.666;18.994;2023-05-29T11:26:19;4.53;;;3.50;;
55025;SDS011;40925;45.666;18.994;2023-05-29T11:28:48;8.98;;;3.65;;
55025;SDS011;40925;45.666;18.994;2023-05-29T11:31:15;6.20;;;3.83;;
55025;SDS011;40925;45.666;18.994;2023-05-29T11:33:46;5.63;;;4.00;;
55025;SDS011;40925;45.666;18.994;2023-05-29T11:36:14;5.97;;;3.50;;
55025;SDS011;40925;45.666;18.994;2023-05-29T11:38:41;4.47;;;3.67;;
55025;SDS011;40925;45.666;18.994;2023-05-29T11:41:06;4.78;;;3.70;;
55025;SDS011;40925;45.666;18.994;2023-05-29T11:43:34;6.40;;;5.80;;
55025;SDS011;40925;45.666;18.994;2023-05-29T11:46:00;7.10;;;4.55;;
55025;SDS011;40925;45.666;18.994;2023-05-29T11:48:26;4.30;;;3.88;;
55025;SDS011;40925;45.666;18.994;2023-05-29T11:50:52;6.53;;;3.75;;
55025;SDS011;40925;45.666;18.994;2023-05-29T11:53:18;6.20;;;4.78;;
55025;SDS011;40925;45.666;18.994;2023-05-29T11:55:44;5.20;;;3.92;;
55025;SDS011;40925;45.666;18.994;2023-05-29T11:58:10;5.97;;;4.70;;
55025;SDS011;40925;45.666;18.994;2023-05-29T12:00:37;6.63;;;4.97;;
55025;SDS011;40925;45.666;18.994;2023-05-29T12:03:04;6.57;;;4.75;;
55025;SDS011;40925;45.666;18.994;2023-05-29T12:05:32;5.93;;;4.95;;
55025;SDS011;40925;45.666;18.994;2023-05-29T12:07:58;5.38;;;4.50;;
55025;SDS011;40925;45.666;18.994;2023-05-29T12:10:29;5.80;;;5.13;;
55025;SDS011;40925;45.666;18.994;2023-05-29T12:12:57;5.97;;;5.38;;
55025;SDS011;40925;45.666;18.994;2023-05-29T12:15:23;5.78;;;5.22;;
55025;SDS011;40925;45.666;18.994;2023-05-29T12:17:50;6.70;;;6.05;;
55025;SDS011;40925;45.666;18.994;2023-05-29T12:20:17;6.50;;;5.90;;
55025;SDS011;40925;45.666;18.994;2023-05-29T12:22:45;7.00;;;6.32;;
55025;SDS011;40925;45.666;18.994;2023-05-29T12:25:18;6.22;;;5.70;;
55025;SDS011;40925;45.666;18.994;2023-05-29T12:27:45;6.72;;;6.13;;
55025;SDS011;40925;45.666;18.994;2023-05-29T12:30:13;10.02;;;9.00;;
55025;SDS011;40925;45.666;18.994;2023-05-29T12:32:41;7.97;;;7.28;;
55025;SDS011;40925;45.666;18.994;2023-05-29T12:37:49;9.27;;;8.35;;
55025;SDS011;40925;45.666;18.994;2023-05-29T12:42:42;9.43;;;8.60;;
55025;SDS011;40925;45.666;18.994;2023-05-29T12:45:08;7.18;;;6.57;;
55025;SDS011;40925;45.666;18.994;2023-05-29T12:47:34;9.20;;;8.30;;
55025;SDS011;40925;45.666;18.994;2023-05-29T12:50:06;11.65;;;10.75;;
55025;SDS011;40925;45.666;18.994;2023-05-29T12:53:08;9.18;;;8.30;;
55025;SDS011;40925;45.666;18.994;2023-05-29T12:55:34;10.90;;;10.10;;
55025;SDS011;40925;45.666;18.994;2023-05-29T12:58:04;10.88;;;10.05;;
55025;SDS011;40925;45.666;18.994;2023-05-29T13:00:31;9.25;;;8.55;;
55025;SDS011;40925;45.666;18.994;2023-05-29T13:03:01;9.23;;;8.43;;
55025;SDS011;40925;45.666;18.994;2023-05-29T13:05:27;10.63;;;9.82;;
55025;SDS011;40925;45.666;18.994;2023-05-29T13:07:53;11.05;;;10.20;;
55025;SDS011;40925;45.666;18.994;2023-05-29T13:10:20;13.68;;;12.52;;
55025;SDS011;40925;45.666;18.994;2023-05-29T13:12:46;12.90;;;12.02;;
55025;SDS011;40925;45.666;18.994;2023-05-29T13:15:15;12.57;;;11.70;;
55025;SDS011;40925;45.666;18.994;2023-05-29T13:17:41;14.55;;;13.32;;
55025;SDS011;40925;45.666;18.994;2023-05-29T13:20:10;12.60;;;11.65;;
55025;SDS011;40925;45.666;18.994;2023-05-29T13:22:38;12.00;;;11.20;;
55025;SDS011;40925;45.666;18.994;2023-05-29T13:25:04;17.63;;;16.33;;
55025;SDS011;40925;45.666;18.994;2023-05-29T13:27:34;16.05;;;14.98;;
55025;SDS011;40925;45.666;18.994;2023-05-29T13:30:01;22.00;;;20.50;;
55025;SDS011;40925;45.666;18.994;2023-05-29T13:32:27;25.48;;;23.63;;
55025;SDS011;40925;45.666;18.994;2023-05-29T13:34:53;18.23;;;16.88;;
55025;SDS011;40925;45.666;18.994;2023-05-29T13:37:19;16.10;;;14.82;;
55025;SDS011;40925;45.666;18.994;2023-05-29T13:39:45;21.90;;;20.17;;
55025;SDS011;40925;45.666;18.994;2023-05-29T13:42:11;18.83;;;17.45;;
55025;SDS011;40925;45.666;18.994;2023-05-29T13:44:37;26.42;;;24.63;;
55025;SDS011;40925;45.666;18.994;2023-05-29T13:47:05;17.85;;;16.55;;
55025;SDS011;40925;45.666;18.994;2023-05-29T13:49:31;51.97;;;48.58;;
55025;SDS011;40925;45.666;18.994;2023-05-29T13:51:57;19.75;;;18.45;;
55025;SDS011;40925;45.666;18.994;2023-05-29T13:54:23;18.80;;;17.40;;
55025;SDS011;40925;45.666;18.994;2023-05-29T13:56:49;20.48;;;19.08;;
55025;SDS011;40925;45.666;18.994;2023-05-29T13:59:14;20.83;;;19.38;;
55025;SDS011;40925;45.666;18.994;2023-05-29T14:01:41;20.65;;;19.20;;
55025;SDS011;40925;45.666;18.994;2023-05-29T14:04:07;27.85;;;25.58;;
55025;SDS011;40925;45.666;18.994;2023-05-29T14:06:33;19.40;;;18.08;;
55025;SDS011;40925;45.666;18.994;2023-05-29T14:08:59;18.48;;;17.13;;
55025;SDS011;40925;45.666;18.994;2023-05-29T14:11:26;20.63;;;19.13;;
55025;SDS011;40925;45.666;18.994;2023-05-29T14:13:52;18.63;;;17.33;;
55025;SDS011;40925;45.666;18.994;2023-05-29T14:16:18;56.70;;;52.92;;
55025;SDS011;40925;45.666;18.994;2023-05-29T14:18:44;33.67;;;31.23;;
55025;SDS011;40925;45.666;18.994;2023-05-29T14:21:10;28.83;;;26.92;;
55025;SDS011;40925;45.666;18.994;2023-05-29T14:23:37;35.53;;;32.90;;
55025;SDS011;40925;45.666;18.994;2023-05-29T14:26:03;27.45;;;25.52;;
55025;SDS011;40925;45.666;18.994;2023-05-29T14:28:29;25.83;;;23.95;;
55025;SDS011;40925;45.666;18.994;2023-05-29T14:30:55;23.75;;;21.95;;
55025;SDS011;40925;45.666;18.994;2023-05-29T14:33:21;16.80;;;15.63;;
55025;SDS011;40925;45.666;18.994;2023-05-29T14:35:47;21.50;;;19.85;;
55025;SDS011;40925;45.666;18.994;2023-05-29T14:38:13;27.48;;;25.48;;
55025;SDS011;40925;45.666;18.994;2023-05-29T14:40:40;16.35;;;15.00;;
55025;SDS011;40925;45.666;18.994;2023-05-29T14:43:06;22.25;;;20.60;;
55025;SDS011;40925;45.666;18.994;2023-05-29T14:45:32;34.05;;;31.60;;
55025;SDS011;40925;45.666;18.994;2023-05-29T14:47:58;18.17;;;16.60;;
55025;SDS011;40925;45.666;18.994;2023-05-29T14:50:24;18.00;;;16.58;;
55025;SDS011;40925;45.666;18.994;2023-05-29T14:52:50;20.27;;;18.60;;
55025;SDS011;40925;45.666;18.994;2023-05-29T14:55:16;26.42;;;24.48;;